sensor_id;sensor_type;location;lat;lon;timestamp;pressure;altitude;pressure_sealevel;temperature;humidity
51227;BME280;42714;48.260;10.980;2023-05-01T00:04:24;969.1;;;10.6;78.4
51227;BME280;42714;48.260;10.980;2023-05-01T00:09:26;969.1;;;10.5;78.6
51227;BME280;42714;48.260;10.980;2023-05-01T00:14:26;969.1;;;10.5;79.0
51227;BME280;42714;48.260;10.980;2023-05-01T00:19:27;969.1;;;10.4;79.5
51227;BME280;42714;48.260;10.980;2023-05-01T00:24:28;969.0;;;10.4;79.7
51227;BME280;42714;48.260;10.980;2023-05-01T00:29:29;969.0;;;10.4;79.9
51227;BME280;42714;48.260;10.980;2023-05-01T00:34:30;968.9;;;10.4;80.1
51227;BME280;42714;48.260;10.980;2023-05-01T00:39:31;968.9;;;10.3;80.6
51227;BME280;42714;48.260;10.980;2023-05-01T00:44:32;968.8;;;10.2;81.0
51227;BME280;42714;48.260;10.980;2023-05-01T00:49:33;968.8;;;10.2;80.9
51227;BME280;42714;48.260;10.980;2023-05-01T00:54:35;968.7;;;10.1;81.5
51227;BME280;42714;48.260;10.980;2023-05-01T00:59:35;968.7;;;10.0;82.2
51227;BME280;42714;48.260;10.980;2023-05-01T01:04:36;968.6;;;9.9;83.0
51227;BME280;42714;48.260;10.980;2023-05-01T01:14:39;968.5;;;9.7;84.1
51227;BME280;42714;48.260;10.980;2023-05-01T01:29:46;968.4;;;9.5;86.2
51227;BME280;42714;48.260;10.980;2023-05-01T01:34:46;968.4;;;9.4;86.8
51227;BME280;42714;48.260;10.980;2023-05-01T01:39:45;968.4;;;9.3;87.6
51227;BME280;42714;48.260;10.980;2023-05-01T01:44:48;968.4;;;9.3;88.5
51227;BME280;42714;48.260;10.980;2023-05-01T01:49:47;968.3;;;9.3;89.3
51227;BME280;42714;48.260;10.980;2023-05-01T01:54:49;968.3;;;9.2;90.1
51227;BME280;42714;48.260;10.980;2023-05-01T01:59:47;968.3;;;9.1;91.1
51227;BME280;42714;48.260;10.980;2023-05-01T02:04:48;968.2;;;9.0;91.6
51227;BME280;42714;48.260;10.980;2023-05-01T02:09:49;968.2;;;8.9;92.3
51227;BME280;42714;48.260;10.980;2023-05-01T02:14:50;968.2;;;8.9;92.7
51227;BME280;42714;48.260;10.980;2023-05-01T02:19:51;968.2;;;8.8;92.9
51227;BME280;42714;48.260;10.980;2023-05-01T02:24:53;968.1;;;8.8;93.1
51227;BME280;42714;48.260;10.980;2023-05-01T02:29:53;968.0;;;8.8;93.4
51227;BME280;42714;48.260;10.980;2023-05-01T02:34:54;968.0;;;8.8;93.5
51227;BME280;42714;48.260;10.980;2023-05-01T02:39:55;968.0;;;8.7;94.0
51227;BME280;42714;48.260;10.980;2023-05-01T02:44:57;967.9;;;8.8;93.8
51227;BME280;42714;48.260;10.980;2023-05-01T02:49:57;967.9;;;8.8;93.7
51227;BME280;42714;48.260;10.980;2023-05-01T02:54:58;967.9;;;8.9;93.0
51227;BME280;42714;48.260;10.980;2023-05-01T02:59:59;967.8;;;8.9;92.7
51227;BME280;42714;48.260;10.980;2023-05-01T03:05:00;967.8;;;9.0;92.1
51227;BME280;42714;48.260;10.980;2023-05-01T03:10:02;967.9;;;9.0;92.2
51227;BME280;42714;48.260;10.980;2023-05-01T03:15:03;967.9;;;9.1;92.4
51227;BME280;42714;48.260;10.980;2023-05-01T03:25:05;967.7;;;9.1;91.9
51227;BME280;42714;48.260;10.980;2023-05-01T03:35:07;967.7;;;9.0;91.9
51227;BME280;42714;48.260;10.980;2023-05-01T03:45:10;967.7;;;9.0;92.4
51227;BME280;42714;48.260;10.980;2023-05-01T03:50:09;967.6;;;9.0;92.8
51227;BME280;42714;48.260;10.980;2023-05-01T03:55:10;967.5;;;9.0;92.9
51227;BME280;42714;48.260;10.980;2023-05-01T04:00:12;967.5;;;8.9;93.1
51227;BME280;42714;48.260;10.980;2023-05-01T04:05:12;967.5;;;8.9;93.5
51227;BME280;42714;48.260;10.980;2023-05-01T04:10:13;967.6;;;8.9;93.6
51227;BME280;42714;48.260;10.980;2023-05-01T04:15:14;967.6;;;8.9;94.3
51227;BME280;42714;48.260;10.980;2023-05-01T04:20:15;967.6;;;8.9;94.3
51227;BME280;42714;48.260;10.980;2023-05-01T04:25:16;967.6;;;9.0;94.0
51227;BME280;42714;48.260;10.980;2023-05-01T04:30:17;967.6;;;9.1;93.3
51227;BME280;42714;48.260;10.980;2023-05-01T04:35:18;967.6;;;9.3;91.8
51227;BME280;42714;48.260;10.980;2023-05-01T04:40:19;967.6;;;9.4;91.8
51227;BME280;42714;48.260;10.980;2023-05-01T04:45:20;967.5;;;9.6;90.5
51227;BME280;42714;48.260;10.980;2023-05-01T04:50:21;967.5;;;9.8;88.8
51227;BME280;42714;48.260;10.980;2023-05-01T04:55:22;967.5;;;9.9;88.3
51227;BME280;42714;48.260;10.980;2023-05-01T05:00:23;967.6;;;10.0;85.3
51227;BME280;42714;48.260;10.980;2023-05-01T05:05:24;967.6;;;10.1;86.4
51227;BME280;42714;48.260;10.980;2023-05-01T05:10:25;967.7;;;10.3;85.0
51227;BME280;42714;48.260;10.980;2023-05-01T05:15:26;967.7;;;10.4;83.4
51227;BME280;42714;48.260;10.980;2023-05-01T05:20:27;967.8;;;10.5;83.4
51227;BME280;42714;48.260;10.980;2023-05-01T05:25:28;967.7;;;10.6;81.6
51227;BME280;42714;48.260;10.980;2023-05-01T05:30:29;967.7;;;10.6;81.4
51227;BME280;42714;48.260;10.980;2023-05-01T05:35:30;967.7;;;10.6;81.6
51227;BME280;42714;48.260;10.980;2023-05-01T05:40:31;967.7;;;10.7;80.9
51227;BME280;42714;48.260;10.980;2023-05-01T05:45:33;967.7;;;10.7;80.0
51227;BME280;42714;48.260;10.980;2023-05-01T05:50:33;967.7;;;10.8;78.7
51227;BME280;42714;48.260;10.980;2023-05-01T05:55:34;967.7;;;10.9;78.9
51227;BME280;42714;48.260;10.980;2023-05-01T06:00:35;967.8;;;11.0;77.1
51227;BME280;42714;48.260;10.980;2023-05-01T06:05:36;967.8;;;11.1;76.4
51227;BME280;42714;48.260;10.980;2023-05-01T06:10:38;967.8;;;11.2;75.6
51227;BME280;42714;48.260;10.980;2023-05-01T06:15:39;967.8;;;11.0;77.9
51227;BME280;42714;48.260;10.980;2023-05-01T06:20:40;967.8;;;10.6;83.1
51227;BME280;42714;48.260;10.980;2023-05-01T06:25:41;967.7;;;10.3;88.3
51227;BME280;42714;48.260;10.980;2023-05-01T06:30:42;967.7;;;10.0;96.8
51227;BME280;42714;48.260;10.980;2023-05-01T06:35:43;967.8;;;9.9;100.0
51227;BME280;42714;48.260;10.980;2023-05-01T06:40:44;967.8;;;9.5;100.0
51227;BME280;42714;48.260;10.980;2023-05-01T06:45:45;967.8;;;9.4;100.0
51227;BME280;42714;48.260;10.980;2023-05-01T06:50:46;967.8;;;9.4;100.0
51227;BME280;42714;48.260;10.980;2023-05-01T06:55:47;967.9;;;9.5;100.0
51227;BME280;42714;48.260;10.980;2023-05-01T07:00:48;967.9;;;9.7;100.0
51227;BME280;42714;48.260;10.980;2023-05-01T07:05:49;968.0;;;9.8;100.0
51227;BME280;42714;48.260;10.980;2023-05-01T07:10:50;968.0;;;9.8;100.0
51227;BME280;42714;48.260;10.980;2023-05-01T07:15:51;968.0;;;9.9;100.0
51227;BME280;42714;48.260;10.980;2023-05-01T07:20:52;967.9;;;10.0;100.0
51227;BME280;42714;48.260;10.980;2023-05-01T07:25:53;967.9;;;9.9;100.0
51227;BME280;42714;48.260;10.980;2023-05-01T07:30:54;967.9;;;9.9;100.0
51227;BME280;42714;48.260;10.980;2023-05-01T07:35:55;967.9;;;9.9;100.0
51227;BME280;42714;48.260;10.980;2023-05-01T07:40:56;968.0;;;10.0;100.0
51227;BME280;42714;48.260;10.980;2023-05-01T07:45:57;967.9;;;10.0;100.0
51227;BME280;42714;48.260;10.980;2023-05-01T07:51:00;968.0;;;10.1;100.0
51227;BME280;42714;48.260;10.980;2023-05-01T07:56:03;967.9;;;10.2;100.0
51227;BME280;42714;48.260;10.980;2023-05-01T08:01:00;968.0;;;10.3;100.0
51227;BME280;42714;48.260;10.980;2023-05-01T08:06:01;968.0;;;10.1;100.0
51227;BME280;42714;48.260;10.980;2023-05-01T08:11:02;968.1;;;10.0;100.0
51227;BME280;42714;48.260;10.980;2023-05-01T08:16:03;968.1;;;9.8;100.0
51227;BME280;42714;48.260;10.980;2023-05-01T08:21:04;968.2;;;9.8;100.0
51227;BME280;42714;48.260;10.980;2023-05-01T08:26:05;968.2;;;9.7;100.0
51227;BME280;42714;48.260;10.980;2023-05-01T08:31:06;968.2;;;9.9;100.0
51227;BME280;42714;48.260;10.980;2023-05-01T08:36:08;968.2;;;10.2;100.0
51227;BME280;42714;48.260;10.980;2023-05-01T08:41:08;968.3;;;10.1;100.0
51227;BME280;42714;48.260;10.980;2023-05-01T08:46:09;968.3;;;9.9;100.0
51227;BME280;42714;48.260;10.980;2023-05-01T08:51:10;968.3;;;9.9;100.0
51227;BME280;42714;48.260;10.980;2023-05-01T08:56:11;968.4;;;9.9;100.0
51227;BME280;42714;48.260;10.980;2023-05-01T09:01:13;968.4;;;9.9;100.0
51227;BME280;42714;48.260;10.980;2023-05-01T09:06:13;968.4;;;10.1;100.0
51227;BME280;42714;48.260;10.980;2023-05-01T09:11:14;968.5;;;9.9;100.0
51227;BME280;42714;48.260;10.980;2023-05-01T09:16:15;968.5;;;10.1;100.0
51227;BME280;42714;48.260;10.980;2023-05-01T09:21:16;968.5;;;10.3;100.0
51227;BME280;42714;48.260;10.980;2023-05-01T09:26:17;968.5;;;10.6;100.0
51227;BME280;42714;48.260;10.980;2023-05-01T09:31:19;968.5;;;10.8;100.0
51227;BME280;42714;48.260;10.980;2023-05-01T09:36:19;968.5;;;10.9;100.0
51227;BME280;42714;48.260;10.980;2023-05-01T09:41:20;968.5;;;11.0;100.0
51227;BME280;42714;48.260;10.980;2023-05-01T09:46:21;968.5;;;11.2;100.0
51227;BME280;42714;48.260;10.980;2023-05-01T09:51:23;968.5;;;11.4;100.0
51227;BME280;42714;48.260;10.980;2023-05-01T09:56:24;968.5;;;11.5;100.0
51227;BME280;42714;48.260;10.980;2023-05-01T10:06:25;968.5;;;12.0;100.0
51227;BME280;42714;48.260;10.980;2023-05-01T10:11:26;968.5;;;12.1;100.0
51227;BME280;42714;48.260;10.980;2023-05-01T10:16:28;968.5;;;12.0;100.0
51227;BME280;42714;48.260;10.980;2023-05-01T10:21:28;968.5;;;12.2;100.0
51227;BME280;42714;48.260;10.980;2023-05-01T10:26:29;968.5;;;12.4;100.0
51227;BME280;42714;48.260;10.980;2023-05-01T10:31:30;968.6;;;12.5;100.0
51227;BME280;42714;48.260;10.980;2023-05-01T10:36:33;968.6;;;12.6;100.0
51227;BME280;42714;48.260;10.980;2023-05-01T10:46:33;968.5;;;12.6;100.0
51227;BME280;42714;48.260;10.980;2023-05-01T10:51:34;968.5;;;12.6;100.0
51227;BME280;42714;48.260;10.980;2023-05-01T11:01:36;968.4;;;13.2;100.0
51227;BME280;42714;48.260;10.980;2023-05-01T11:06:37;968.4;;;13.6;100.0
51227;BME280;42714;48.260;10.980;2023-05-01T11:16:39;968.3;;;13.8;100.0
51227;BME280;42714;48.260;10.980;2023-05-01T11:21:40;968.2;;;13.9;100.0
51227;BME280;42714;48.260;10.980;2023-05-01T11:26:41;968.2;;;14.0;100.0
51227;BME280;42714;48.260;10.980;2023-05-01T11:31:42;968.2;;;14.1;100.0
51227;BME280;42714;48.260;10.980;2023-05-01T11:41:44;968.1;;;14.3;100.0
51227;BME280;42714;48.260;10.980;2023-05-01T11:46:45;968.1;;;14.5;100.0
51227;BME280;42714;48.260;10.980;2023-05-01T11:51:54;968.1;;;14.6;100.0
51227;BME280;42714;48.260;10.980;2023-05-01T11:56:47;968.1;;;14.5;100.0
51227;BME280;42714;48.260;10.980;2023-05-01T12:01:48;968.0;;;14.3;100.0
51227;BME280;42714;48.260;10.980;2023-05-01T12:06:49;968.0;;;14.2;100.0
51227;BME280;42714;48.260;10.980;2023-05-01T12:11:50;968.0;;;14.2;100.0
51227;BME280;42714;48.260;10.980;2023-05-01T12:16:51;968.0;;;14.1;100.0
51227;BME280;42714;48.260;10.980;2023-05-01T12:26:58;968.0;;;14.1;100.0
51227;BME280;42714;48.260;10.980;2023-05-01T12:31:54;968.0;;;14.1;100.0
51227;BME280;42714;48.260;10.980;2023-05-01T12:36:55;968.0;;;13.9;100.0
51227;BME280;42714;48.260;10.980;2023-05-01T12:41:56;968.0;;;13.7;100.0
51227;BME280;42714;48.260;10.980;2023-05-01T12:46:58;968.0;;;14.0;100.0
51227;BME280;42714;48.260;10.980;2023-05-01T12:51:59;968.0;;;14.1;100.0
51227;BME280;42714;48.260;10.980;2023-05-01T13:02:04;967.9;;;14.3;100.0
51227;BME280;42714;48.260;10.980;2023-05-01T13:07:01;967.9;;;14.5;100.0
51227;BME280;42714;48.260;10.980;2023-05-01T13:12:03;967.8;;;14.2;100.0
51227;BME280;42714;48.260;10.980;2023-05-01T13:17:04;967.8;;;13.7;100.0
51227;BME280;42714;48.260;10.980;2023-05-01T13:22:05;967.8;;;13.6;100.0
51227;BME280;42714;48.260;10.980;2023-05-01T13:27:06;967.8;;;13.3;100.0
51227;BME280;42714;48.260;10.980;2023-05-01T13:32:08;967.8;;;13.1;100.0
51227;BME280;42714;48.260;10.980;2023-05-01T13:37:08;967.9;;;13.6;100.0
51227;BME280;42714;48.260;10.980;2023-05-01T13:47:10;967.8;;;13.4;100.0
51227;BME280;42714;48.260;10.980;2023-05-01T13:52:10;967.8;;;13.5;100.0
51227;BME280;42714;48.260;10.980;2023-05-01T13:57:11;967.8;;;13.4;100.0
51227;BME280;42714;48.260;10.980;2023-05-01T14:07:16;967.8;;;13.5;100.0
51227;BME280;42714;48.260;10.980;2023-05-01T14:12:14;967.8;;;13.4;100.0
51227;BME280;42714;48.260;10.980;2023-05-01T14:17:15;967.7;;;13.6;100.0
51227;BME280;42714;48.260;10.980;2023-05-01T14:22:16;967.7;;;13.8;100.0
51227;BME280;42714;48.260;10.980;2023-05-01T14:27:17;967.7;;;13.8;100.0
51227;BME280;42714;48.260;10.980;2023-05-01T14:32:18;967.7;;;13.6;100.0
51227;BME280;42714;48.260;10.980;2023-05-01T14:37:19;967.7;;;13.6;100.0
51227;BME280;42714;48.260;10.980;2023-05-01T14:42:20;967.7;;;13.7;100.0
51227;BME280;42714;48.260;10.980;2023-05-01T14:47:21;967.7;;;14.0;100.0
51227;BME280;42714;48.260;10.980;2023-05-01T14:52:22;967.7;;;14.1;100.0
51227;BME280;42714;48.260;10.980;2023-05-01T14:57:23;967.7;;;13.8;100.0
51227;BME280;42714;48.260;10.980;2023-05-01T15:02:24;967.7;;;13.9;100.0
51227;BME280;42714;48.260;10.980;2023-05-01T15:07:25;967.7;;;14.0;100.0
51227;BME280;42714;48.260;10.980;2023-05-01T15:12:26;967.8;;;14.0;100.0
51227;BME280;42714;48.260;10.980;2023-05-01T15:17:27;967.8;;;14.2;100.0
51227;BME280;42714;48.260;10.980;2023-05-01T15:22:28;967.8;;;14.2;100.0
51227;BME280;42714;48.260;10.980;2023-05-01T15:27:29;967.8;;;14.4;100.0
51227;BME280;42714;48.260;10.980;2023-05-01T15:32:30;967.8;;;14.5;100.0
51227;BME280;42714;48.260;10.980;2023-05-01T15:37:31;967.8;;;14.4;100.0
51227;BME280;42714;48.260;10.980;2023-05-01T15:42:32;967.8;;;14.3;100.0
51227;BME280;42714;48.260;10.980;2023-05-01T15:47:33;967.9;;;13.8;100.0
51227;BME280;42714;48.260;10.980;2023-05-01T15:52:34;967.9;;;13.6;100.0
51227;BME280;42714;48.260;10.980;2023-05-01T15:57:35;968.0;;;13.4;100.0
51227;BME280;42714;48.260;10.980;2023-05-01T16:02:36;968.0;;;13.1;100.0
51227;BME280;42714;48.260;10.980;2023-05-01T16:07:37;968.1;;;12.9;100.0
51227;BME280;42714;48.260;10.980;2023-05-01T16:12:38;968.1;;;12.7;100.0
51227;BME280;42714;48.260;10.980;2023-05-01T16:17:41;968.1;;;12.5;100.0
51227;BME280;42714;48.260;10.980;2023-05-01T16:22:40;968.1;;;12.4;100.0
51227;BME280;42714;48.260;10.980;2023-05-01T16:27:41;968.2;;;12.5;100.0
51227;BME280;42714;48.260;10.980;2023-05-01T16:32:42;968.3;;;12.5;100.0
51227;BME280;42714;48.260;10.980;2023-05-01T16:37:43;968.4;;;12.4;100.0
51227;BME280;42714;48.260;10.980;2023-05-01T16:42:53;968.4;;;12.4;100.0
51227;BME280;42714;48.260;10.980;2023-05-01T16:47:45;968.5;;;12.4;100.0
51227;BME280;42714;48.260;10.980;2023-05-01T16:52:46;968.4;;;12.5;100.0
51227;BME280;42714;48.260;10.980;2023-05-01T16:57:47;968.4;;;12.4;100.0
51227;BME280;42714;48.260;10.980;2023-05-01T17:02:48;968.4;;;12.3;100.0
51227;BME280;42714;48.260;10.980;2023-05-01T17:07:49;968.5;;;12.3;100.0
51227;BME280;42714;48.260;10.980;2023-05-01T17:12:50;968.5;;;12.3;100.0
51227;BME280;42714;48.260;10.980;2023-05-01T17:17:51;968.6;;;12.2;100.0
51227;BME280;42714;48.260;10.980;2023-05-01T17:22:52;968.6;;;12.2;100.0
51227;BME280;42714;48.260;10.980;2023-05-01T17:27:53;968.7;;;12.2;100.0
51227;BME280;42714;48.260;10.980;2023-05-01T17:32:54;968.7;;;12.2;100.0
51227;BME280;42714;48.260;10.980;2023-05-01T17:37:55;968.7;;;12.2;100.0
51227;BME280;42714;48.260;10.980;2023-05-01T17:42:57;968.7;;;12.1;100.0
51227;BME280;42714;48.260;10.980;2023-05-01T17:47:57;968.8;;;12.1;100.0
51227;BME280;42714;48.260;10.980;2023-05-01T17:52:58;968.9;;;12.1;100.0
51227;BME280;42714;48.260;10.980;2023-05-01T17:57:59;968.9;;;12.1;100.0
51227;BME280;42714;48.260;10.980;2023-05-01T18:03:00;969.0;;;11.9;100.0
51227;BME280;42714;48.260;10.980;2023-05-01T18:08:01;969.0;;;11.7;100.0
51227;BME280;42714;48.260;10.980;2023-05-01T18:13:02;969.3;;;11.7;100.0
51227;BME280;42714;48.260;10.980;2023-05-01T18:18:03;969.3;;;11.5;100.0
51227;BME280;42714;48.260;10.980;2023-05-01T18:23:04;969.5;;;11.3;100.0
51227;BME280;42714;48.260;10.980;2023-05-01T18:28:05;969.5;;;11.1;100.0
51227;BME280;42714;48.260;10.980;2023-05-01T18:33:06;969.5;;;10.9;100.0
51227;BME280;42714;48.260;10.980;2023-05-01T18:38:08;969.5;;;10.7;100.0
51227;BME280;42714;48.260;10.980;2023-05-01T18:43:08;969.6;;;10.6;100.0
51227;BME280;42714;48.260;10.980;2023-05-01T18:48:09;969.6;;;10.7;100.0
51227;BME280;42714;48.260;10.980;2023-05-01T18:53:10;969.7;;;10.6;100.0
51227;BME280;42714;48.260;10.980;2023-05-01T18:58:11;969.7;;;10.6;100.0
51227;BME280;42714;48.260;10.980;2023-05-01T19:03:12;969.7;;;10.6;100.0
51227;BME280;42714;48.260;10.980;2023-05-01T19:08:13;969.8;;;10.6;100.0
51227;BME280;42714;48.260;10.980;2023-05-01T19:13:15;969.9;;;10.6;100.0
51227;BME280;42714;48.260;10.980;2023-05-01T19:18:15;970.0;;;10.5;100.0
51227;BME280;42714;48.260;10.980;2023-05-01T19:23:16;970.0;;;10.4;100.0
51227;BME280;42714;48.260;10.980;2023-05-01T19:28:17;970.1;;;10.4;100.0
51227;BME280;42714;48.260;10.980;2023-05-01T19:33:18;970.1;;;10.4;100.0
51227;BME280;42714;48.260;10.980;2023-05-01T19:38:19;970.1;;;10.3;100.0
51227;BME280;42714;48.260;10.980;2023-05-01T19:43:20;970.2;;;10.2;100.0
51227;BME280;42714;48.260;10.980;2023-05-01T19:48:21;970.2;;;10.2;100.0
51227;BME280;42714;48.260;10.980;2023-05-01T19:53:22;970.3;;;10.1;100.0
51227;BME280;42714;48.260;10.980;2023-05-01T19:58:24;970.3;;;10.1;100.0
51227;BME280;42714;48.260;10.980;2023-05-01T20:03:24;970.4;;;10.2;100.0
51227;BME280;42714;48.260;10.980;2023-05-01T20:08:26;970.4;;;10.2;100.0
51227;BME280;42714;48.260;10.980;2023-05-01T20:13:28;970.4;;;10.2;100.0
51227;BME280;42714;48.260;10.980;2023-05-01T20:18:28;970.4;;;10.2;100.0
51227;BME280;42714;48.260;10.980;2023-05-01T20:23:29;970.4;;;10.1;100.0
51227;BME280;42714;48.260;10.980;2023-05-01T20:28:30;970.4;;;10.1;100.0
51227;BME280;42714;48.260;10.980;2023-05-01T20:33:31;970.5;;;10.0;100.0
51227;BME280;42714;48.260;10.980;2023-05-01T20:38:37;970.5;;;10.1;100.0
51227;BME280;42714;48.260;10.980;2023-05-01T20:43:33;970.5;;;10.0;100.0
51227;BME280;42714;48.260;10.980;2023-05-01T20:48:34;970.5;;;10.0;100.0
51227;BME280;42714;48.260;10.980;2023-05-01T20:53:35;970.5;;;10.1;100.0
51227;BME280;42714;48.260;10.980;2023-05-01T20:58:36;970.6;;;10.0;100.0
51227;BME280;42714;48.260;10.980;2023-05-01T21:03:37;970.6;;;10.1;100.0
51227;BME280;42714;48.260;10.980;2023-05-01T21:08:38;970.6;;;10.1;100.0
51227;BME280;42714;48.260;10.980;2023-05-01T21:13:39;970.7;;;10.2;100.0
51227;BME280;42714;48.260;10.980;2023-05-01T21:18:40;970.8;;;10.4;100.0
51227;BME280;42714;48.260;10.980;2023-05-01T21:23:44;970.9;;;10.4;100.0
51227;BME280;42714;48.260;10.980;2023-05-01T21:28:42;970.9;;;10.3;100.0
51227;BME280;42714;48.260;10.980;2023-05-01T21:33:43;970.9;;;10.2;100.0
51227;BME280;42714;48.260;10.980;2023-05-01T21:38:44;971.0;;;10.3;100.0
51227;BME280;42714;48.260;10.980;2023-05-01T21:43:45;971.0;;;10.2;100.0
51227;BME280;42714;48.260;10.980;2023-05-01T21:48:50;971.0;;;10.2;100.0
51227;BME280;42714;48.260;10.980;2023-05-01T21:53:47;971.0;;;10.2;100.0
51227;BME280;42714;48.260;10.980;2023-05-01T21:58:49;971.1;;;10.1;100.0
51227;BME280;42714;48.260;10.980;2023-05-01T22:03:49;971.1;;;10.1;100.0
51227;BME280;42714;48.260;10.980;2023-05-01T22:08:50;971.1;;;10.1;100.0
51227;BME280;42714;48.260;10.980;2023-05-01T22:13:51;971.1;;;10.1;100.0
51227;BME280;42714;48.260;10.980;2023-05-01T22:18:52;971.1;;;10.2;100.0
51227;BME280;42714;48.260;10.980;2023-05-01T22:23:53;971.1;;;10.1;100.0
51227;BME280;42714;48.260;10.980;2023-05-01T22:28:54;971.1;;;10.1;100.0
51227;BME280;42714;48.260;10.980;2023-05-01T22:33:55;971.0;;;10.1;100.0
51227;BME280;42714;48.260;10.980;2023-05-01T22:38:56;971.1;;;10.0;100.0
51227;BME280;42714;48.260;10.980;2023-05-01T22:43:57;971.1;;;9.9;100.0
51227;BME280;42714;48.260;10.980;2023-05-01T22:48:58;971.2;;;9.9;100.0
51227;BME280;42714;48.260;10.980;2023-05-01T22:53:59;971.1;;;9.9;100.0
51227;BME280;42714;48.260;10.980;2023-05-01T22:59:00;971.2;;;9.9;100.0
51227;BME280;42714;48.260;10.980;2023-05-01T23:04:02;971.2;;;9.9;100.0
51227;BME280;42714;48.260;10.980;2023-05-01T23:09:02;971.2;;;9.8;100.0
51227;BME280;42714;48.260;10.980;2023-05-01T23:14:03;971.2;;;9.8;100.0
51227;BME280;42714;48.260;10.980;2023-05-01T23:19:05;971.2;;;9.7;100.0
51227;BME280;42714;48.260;10.980;2023-05-01T23:24:06;971.2;;;9.6;100.0
51227;BME280;42714;48.260;10.980;2023-05-01T23:29:07;971.2;;;9.6;100.0
51227;BME280;42714;48.260;10.980;2023-05-01T23:34:08;971.3;;;9.4;100.0
51227;BME280;42714;48.260;10.980;2023-05-01T23:39:09;971.3;;;9.4;100.0
51227;BME280;42714;48.260;10.980;2023-05-01T23:44:10;971.3;;;9.3;100.0
51227;BME280;42714;48.260;10.980;2023-05-01T23:49:11;971.2;;;9.3;100.0
51227;BME280;42714;48.260;10.980;2023-05-01T23:54:12;971.2;;;9.3;100.0
51227;BME280;42714;48.260;10.980;2023-05-01T23:59:13;971.2;;;9.2;100.0
